Time;durP1;ratioP1;P1;durP2;ratioP2;P2;SDS_P1;SDS_P2;PMS_P1;PMS_P2;Temp;Humidity;BMP_temperature;BMP_pressure;BME280_temperature;BME280_humidity;BME280_pressure;Samples;Min_cycle;Max_cycle;Signal;HPM_P1;HPM_P2
2022/03/22 00:00:48;;;;;;;14.90;12.43;;;6.60;66.40;;;;;;6058995;23;20242;-72
2022/03/22 00:03:15;;;;;;;18.02;12.93;;;6.50;67.20;;;;;;6053214;23;20254;-72
2022/03/22 00:05:44;;;;;;;14.10;12.40;;;6.40;67.80;;;;;;6052789;23;20196;-72
2022/03/22 00:08:12;;;;;;;12.32;11.13;;;6.30;68.60;;;;;;6060270;23;20243;-72
2022/03/22 00:10:39;;;;;;;13.73;11.57;;;6.20;69.30;;;;;;6052263;23;20189;-72
2022/03/22 00:13:06;;;;;;;14.68;11.77;;;6.10;70.00;;;;;;6055743;23;20181;-72
2022/03/22 00:15:34;;;;;;;12.77;11.38;;;6.00;70.00;;;;;;6048204;23;20220;-72
2022/03/22 00:18:01;;;;;;;12.48;11.23;;;6.00;69.90;;;;;;6050031;23;20243;-72
2022/03/22 00:20:29;;;;;;;14.52;12.00;;;6.00;70.60;;;;;;6053270;23;20189;-72
2022/03/22 00:22:57;;;;;;;13.23;11.77;;;6.10;72.40;;;;;;6051402;23;20185;-72
2022/03/22 00:25:25;;;;;;;13.82;12.27;;;6.00;73.10;;;;;;6050962;23;20196;-72
2022/03/22 00:27:53;;;;;;;12.38;11.13;;;6.00;72.20;;;;;;6060085;23;20575;-72
2022/03/22 00:30:22;;;;;;;11.90;10.30;;;5.90;71.10;;;;;;6059114;23;20260;-72
2022/03/22 00:32:53;;;;;;;13.18;11.20;;;5.90;70.70;;;;;;6051377;23;20187;-72
2022/03/22 00:35:23;;;;;;;13.40;11.52;;;5.90;69.90;;;;;;6060955;23;20204;-71
2022/03/22 00:38:12;;;;;;;11.55;10.45;;;5.90;69.60;;;;;;6045884;23;20209;-72
2022/03/22 00:40:40;;;;;;;12.98;11.75;;;5.90;69.50;;;;;;6051540;23;20204;-72
2022/03/22 00:43:07;;;;;;;14.68;12.07;;;6.00;69.70;;;;;;6040449;23;20191;-72
2022/03/22 00:45:34;;;;;;;12.52;11.23;;;6.00;69.70;;;;;;6054604;23;20195;-72
2022/03/22 00:48:03;;;;;;;12.65;10.80;;;6.00;69.70;;;;;;6053991;23;20324;-72
2022/03/22 00:50:33;;;;;;;12.93;11.55;;;6.00;69.80;;;;;;6063762;23;20196;-72
2022/03/22 00:53:02;;;;;;;12.70;11.35;;;6.00;69.80;;;;;;6052531;23;20652;-72
2022/03/22 00:55:30;;;;;;;12.02;10.93;;;6.00;70.00;;;;;;6050151;23;20250;-72
2022/03/22 00:57:57;;;;;;;15.60;11.40;;;6.00;69.80;;;;;;6055501;23;20200;-72
2022/03/22 01:00:26;;;;;;;12.98;11.68;;;6.00;69.80;;;;;;6046285;23;20193;-71
2022/03/22 01:02:55;;;;;;;12.20;11.00;;;6.00;69.70;;;;;;6049941;23;20299;-71
2022/03/22 01:05:23;;;;;;;12.13;10.80;;;6.00;70.10;;;;;;6049934;23;20264;-71
2022/03/22 01:07:52;;;;;;;13.23;11.00;;;6.00;70.30;;;;;;6049839;23;20243;-71
2022/03/22 01:10:20;;;;;;;12.75;11.23;;;5.90;70.50;;;;;;6057102;23;20271;-71
2022/03/22 01:12:49;;;;;;;14.25;12.30;;;5.90;71.60;;;;;;6054254;23;20187;-72
2022/03/22 01:15:19;;;;;;;13.68;12.27;;;5.90;72.80;;;;;;6053057;23;20217;-71
2022/03/22 01:17:48;;;;;;;13.18;11.75;;;5.70;73.60;;;;;;6049696;23;20304;-72
2022/03/22 01:20:16;;;;;;;14.02;12.60;;;5.60;74.60;;;;;;6050561;23;20189;-72
2022/03/22 01:22:45;;;;;;;15.57;12.20;;;5.60;75.50;;;;;;6049074;23;20197;-72
2022/03/22 01:25:14;;;;;;;12.65;11.35;;;5.50;76.10;;;;;;6047253;23;20278;-71
2022/03/22 01:27:42;;;;;;;13.70;12.40;;;5.40;76.80;;;;;;6052416;23;20683;-71
2022/03/22 01:30:13;;;;;;;14.57;13.00;;;5.30;77.00;;;;;;6058376;23;20239;-72
2022/03/22 01:32:40;;;;;;;12.80;11.48;;;5.20;77.40;;;;;;6043722;23;20192;-72
2022/03/22 01:35:10;;;;;;;13.48;11.95;;;5.20;77.80;;;;;;6051910;23;20216;-71
2022/03/22 01:37:38;;;;;;;13.68;12.32;;;5.10;77.90;;;;;;6049214;23;20888;-71
2022/03/22 01:40:06;;;;;;;15.35;13.75;;;5.10;78.60;;;;;;6046102;23;20258;-72
2022/03/22 01:42:33;;;;;;;13.77;12.40;;;5.00;79.60;;;;;;6063102;23;20185;-71
2022/03/22 01:45:01;;;;;;;14.23;12.82;;;4.90;79.90;;;;;;6053004;23;20283;-72
2022/03/22 01:47:30;;;;;;;14.93;13.00;;;4.90;80.80;;;;;;6056790;23;20862;-71
2022/03/22 01:49:57;;;;;;;13.55;12.20;;;4.80;81.30;;;;;;6055208;23;20259;-72
2022/03/22 01:52:26;;;;;;;14.18;12.55;;;4.80;82.30;;;;;;6050106;23;20203;-71
2022/03/22 01:54:55;;;;;;;15.48;13.52;;;4.80;82.90;;;;;;6047329;23;20213;-72
2022/03/22 01:57:24;;;;;;;14.00;12.60;;;4.80;83.40;;;;;;6049919;23;20223;-71
2022/03/22 01:59:51;;;;;;;13.93;12.52;;;4.70;84.30;;;;;;6045138;23;20205;-72
2022/03/22 02:07:50;;;;;;;15.00;13.40;;;4.60;86.50;;;;;;6057391;23;20283;-71
2022/03/22 02:10:18;;;;;;;16.80;13.13;;;4.50;87.10;;;;;;6052608;23;20185;-71
2022/03/22 02:12:46;;;;;;;14.75;13.35;;;4.40;87.90;;;;;;6056877;23;20185;-71
2022/03/22 02:15:14;;;;;;;17.70;13.00;;;4.30;88.90;;;;;;6057946;23;20239;-71
2022/03/22 02:17:45;;;;;;;15.80;13.82;;;4.20;89.70;;;;;;6051328;23;20246;-71
2022/03/22 02:20:14;;;;;;;15.00;13.50;;;4.10;90.30;;;;;;6046103;23;20209;-70
2022/03/22 02:22:50;;;;;;;15.73;13.60;;;4.00;90.80;;;;;;6045293;23;20551;-71
2022/03/22 02:25:19;;;;;;;14.55;13.05;;;3.90;91.40;;;;;;6042914;23;20830;-71
2022/03/22 02:27:46;;;;;;;15.27;13.68;;;3.80;92.00;;;;;;6052217;23;20219;-71
2022/03/22 02:30:13;;;;;;;15.80;13.35;;;3.70;92.60;;;;;;6052800;23;20271;-71
2022/03/22 02:32:40;;;;;;;15.68;13.90;;;3.70;93.00;;;;;;6062738;23;20192;-71
2022/03/22 02:35:09;;;;;;;14.93;13.30;;;3.60;93.40;;;;;;6045574;23;20330;-71
2022/03/22 02:37:35;;;;;;;14.95;13.43;;;3.60;93.60;;;;;;6050636;23;20211;-71
2022/03/22 02:40:02;;;;;;;15.68;12.77;;;3.50;94.00;;;;;;6047781;23;20191;-70
2022/03/22 02:42:31;;;;;;;16.00;13.00;;;3.50;94.00;;;;;;6046521;23;20185;-71
2022/03/22 02:44:57;;;;;;;14.70;13.07;;;3.50;94.20;;;;;;6046282;23;20189;-71
2022/03/22 02:47:24;;;;;;;15.40;13.02;;;3.50;94.20;;;;;;6053647;23;20232;-71
2022/03/22 02:49:52;;;;;;;13.80;12.40;;;3.50;94.60;;;;;;6047664;23;20187;-70
2022/03/22 02:52:18;;;;;;;19.17;13.75;;;3.50;94.70;;;;;;6055543;23;20272;-71
2022/03/22 02:54:45;;;;;;;14.38;12.85;;;3.40;94.90;;;;;;6048782;23;20196;-71
2022/03/22 02:57:12;;;;;;;21.77;13.50;;;3.30;95.30;;;;;;6039378;23;20327;-70
2022/03/22 02:59:40;;;;;;;14.85;13.40;;;3.30;95.70;;;;;;6049496;23;20204;-71
2022/03/22 03:02:07;;;;;;;14.63;12.77;;;3.20;96.10;;;;;;6054552;23;20494;-71
2022/03/22 03:04:34;;;;;;;15.90;13.63;;;3.20;96.40;;;;;;6046788;23;20275;-71
2022/03/22 03:07:01;;;;;;;14.65;13.15;;;3.10;96.80;;;;;;6061722;23;20214;-71
2022/03/22 03:09:28;;;;;;;16.20;14.50;;;3.00;97.20;;;;;;6051216;23;20980;-70
2022/03/22 03:11:55;;;;;;;15.20;13.55;;;3.00;97.50;;;;;;6049667;23;20198;-70
2022/03/22 03:14:41;;;;;;;14.77;13.25;;;3.00;97.90;;;;;;6047160;23;20305;-71
2022/03/22 03:17:10;;;;;;;14.63;13.13;;;3.00;98.20;;;;;;6059094;23;20238;-71
2022/03/22 03:19:37;;;;;;;14.60;13.10;;;3.00;98.50;;;;;;6063648;23;20547;-70
2022/03/22 03:22:05;;;;;;;15.98;13.82;;;2.90;98.90;;;;;;6048645;23;20311;-70
2022/03/22 03:24:32;;;;;;;15.15;13.55;;;2.90;99.20;;;;;;6051822;23;20183;-70
2022/03/22 03:26:59;;;;;;;15.43;13.95;;;2.90;99.50;;;;;;6052725;23;20215;-71
2022/03/22 03:29:26;;;;;;;17.05;13.55;;;2.90;99.90;;;;;;6052118;23;20395;-70
2022/03/22 03:31:54;;;;;;;15.15;13.60;;;2.90;99.90;;;;;;6053689;23;20544;-70
2022/03/22 03:34:22;;;;;;;17.02;15.23;;;2.90;99.90;;;;;;6056659;23;20192;-71
2022/03/22 03:36:50;;;;;;;17.73;15.75;;;2.90;99.90;;;;;;6051024;23;20212;-71
2022/03/22 03:39:17;;;;;;;17.73;15.82;;;3.00;99.90;;;;;;6051521;23;20616;-71
2022/03/22 03:41:56;;;;;;;20.00;16.00;;;3.00;99.90;;;;;;6049150;23;20184;-70
2022/03/22 03:47:11;;;;;;;19.95;17.70;;;3.10;99.90;;;;;;6045234;23;20215;-70
2022/03/22 03:49:41;;;;;;;16.83;15.02;;;3.20;99.90;;;;;;6052750;23;20191;-71
2022/03/22 03:52:10;;;;;;;17.63;15.57;;;3.20;99.90;;;;;;6052174;23;20274;-71
2022/03/22 03:54:37;;;;;;;18.10;15.65;;;3.20;99.90;;;;;;6047414;23;20193;-70
2022/03/22 03:57:05;;;;;;;17.88;15.77;;;3.20;99.90;;;;;;6056455;23;20223;-70
2022/03/22 03:59:33;;;;;;;17.73;15.82;;;3.20;99.90;;;;;;6055445;23;20591;-70
2022/03/22 04:02:00;;;;;;;17.23;15.52;;;3.20;99.90;;;;;;6055477;23;20284;-71
2022/03/22 04:04:27;;;;;;;17.30;15.32;;;3.20;99.90;;;;;;6049670;23;20471;-70
2022/03/22 04:06:55;;;;;;;18.10;16.20;;;3.20;99.90;;;;;;6060581;23;20210;-71
2022/03/22 04:09:22;;;;;;;17.75;15.85;;;3.20;99.90;;;;;;6048614;23;20270;-70
2022/03/22 04:11:49;;;;;;;18.02;16.23;;;3.20;99.90;;;;;;6066816;23;20187;-70
2022/03/22 04:14:16;;;;;;;17.95;15.80;;;3.20;99.90;;;;;;6048496;23;20192;-70
2022/03/22 04:16:43;;;;;;;18.02;15.95;;;3.20;99.90;;;;;;6047224;23;20302;-70
2022/03/22 04:19:10;;;;;;;17.85;16.05;;;3.20;99.90;;;;;;6049195;23;20609;-70
2022/03/22 04:21:38;;;;;;;19.55;15.68;;;3.20;99.90;;;;;;6053372;23;20198;-72
2022/03/22 04:24:09;;;;;;;20.02;16.85;;;3.30;99.90;;;;;;6067632;23;20203;-71
2022/03/22 04:26:37;;;;;;;17.92;15.85;;;3.30;99.90;;;;;;6054578;23;20587;-70
2022/03/22 04:34:34;;;;;;;18.90;16.05;;;3.30;99.90;;;;;;6058221;23;20191;-71
2022/03/22 04:37:02;;;;;;;18.25;16.10;;;3.30;99.90;;;;;;6056542;23;20643;-70
2022/03/22 04:39:31;;;;;;;17.77;15.95;;;3.30;99.90;;;;;;6048565;23;20282;-70
2022/03/22 04:41:59;;;;;;;18.85;16.75;;;3.30;99.90;;;;;;6057577;23;20192;-70
2022/03/22 04:44:28;;;;;;;16.95;15.15;;;3.30;99.90;;;;;;6057122;23;20263;-70
2022/03/22 04:46:56;;;;;;;18.92;16.92;;;3.40;99.90;;;;;;6054497;23;20210;-70
2022/03/22 04:49:23;;;;;;;18.15;16.20;;;3.30;99.90;;;;;;6053731;23;20188;-71
2022/03/22 04:57:21;;;;;;;18.05;16.13;;;3.30;99.90;;;;;;6051874;23;20607;-70
2022/03/22 04:59:48;;;;;;;19.10;16.15;;;3.30;99.90;;;;;;6055369;23;20219;-71
2022/03/22 05:02:15;;;;;;;16.85;15.13;;;3.30;99.90;;;;;;6060791;23;20198;-71
2022/03/22 05:04:42;;;;;;;19.27;16.50;;;3.30;99.90;;;;;;6057888;23;20185;-70
2022/03/22 05:07:10;;;;;;;18.70;15.38;;;3.40;99.90;;;;;;6050294;23;20616;-72
2022/03/22 05:09:38;;;;;;;17.92;15.90;;;3.40;99.90;;;;;;6051634;23;20184;-72
2022/03/22 05:12:06;;;;;;;19.70;17.35;;;3.40;99.90;;;;;;6054589;23;20325;-71
2022/03/22 05:14:35;;;;;;;18.60;16.17;;;3.40;99.90;;;;;;6049901;23;20199;-69
2022/03/22 05:17:03;;;;;;;18.83;16.83;;;3.40;99.90;;;;;;6046276;23;20396;-69
2022/03/22 05:19:30;;;;;;;19.17;16.02;;;3.30;99.90;;;;;;6048117;23;20195;-69
2022/03/22 05:21:57;;;;;;;20.48;17.40;;;3.30;99.90;;;;;;6051910;23;20203;-70
2022/03/22 05:24:24;;;;;;;20.08;16.77;;;3.20;99.90;;;;;;6046346;23;20265;-70
2022/03/22 05:26:52;;;;;;;17.55;15.68;;;3.20;99.90;;;;;;6049055;23;20690;-69
2022/03/22 05:29:19;;;;;;;18.63;16.70;;;3.10;99.90;;;;;;6051153;23;20200;-69
2022/03/22 05:31:46;;;;;;;19.98;17.92;;;3.10;99.90;;;;;;6047669;23;20307;-69
2022/03/22 05:34:13;;;;;;;18.98;16.83;;;3.10;99.90;;;;;;6047672;23;20712;-69
2022/03/22 05:36:40;;;;;;;19.50;17.40;;;3.10;99.90;;;;;;6047870;23;22088;-69
2022/03/22 05:39:07;;;;;;;19.25;15.98;;;3.00;99.90;;;;;;6058410;23;20329;-69
2022/03/22 05:41:34;;;;;;;19.27;17.25;;;3.10;99.90;;;;;;6044139;23;20214;-69
2022/03/22 05:44:03;;;;;;;22.90;17.95;;;3.10;99.90;;;;;;6048555;23;20266;-69
2022/03/22 05:46:31;;;;;;;19.92;17.52;;;3.10;99.90;;;;;;6052801;23;20243;-70
2022/03/22 05:48:58;;;;;;;21.35;18.50;;;3.10;99.90;;;;;;6042730;23;20215;-70
2022/03/22 05:51:25;;;;;;;18.42;16.10;;;3.10;99.90;;;;;;6044124;23;20666;-70
2022/03/22 05:53:52;;;;;;;22.95;18.30;;;3.10;99.90;;;;;;6055099;23;20185;-82
2022/03/22 05:56:19;;;;;;;20.60;17.45;;;3.00;99.90;;;;;;6055558;23;20216;-68
2022/03/22 05:58:46;;;;;;;19.25;16.70;;;3.00;99.90;;;;;;6051463;23;20192;-68
2022/03/22 06:01:16;;;;;;;18.98;16.98;;;3.00;99.90;;;;;;6051741;23;20192;-68
2022/03/22 06:03:43;;;;;;;18.77;16.27;;;3.00;99.90;;;;;;6041723;23;20503;-68
2022/03/22 06:06:10;;;;;;;18.98;17.08;;;3.10;99.90;;;;;;6043360;23;20218;-69
2022/03/22 06:08:37;;;;;;;19.50;17.23;;;3.10;99.90;;;;;;6038790;23;20192;-69
2022/03/22 06:11:04;;;;;;;20.25;17.33;;;3.20;99.90;;;;;;6035629;23;20193;-69
2022/03/22 06:13:31;;;;;;;17.95;15.98;;;3.30;99.90;;;;;;6036082;23;20227;-69
2022/03/22 06:15:58;;;;;;;17.85;15.57;;;3.50;99.90;;;;;;6042792;23;20259;-69
2022/03/22 06:18:27;;;;;;;18.38;16.42;;;3.80;99.90;;;;;;6047255;23;20184;-68
2022/03/22 06:20:54;;;;;;;17.35;15.65;;;4.30;99.90;;;;;;6047968;23;20874;-69
2022/03/22 06:23:21;;;;;;;17.35;15.55;;;4.70;99.90;;;;;;6044723;23;20189;-69
2022/03/22 06:25:48;;;;;;;16.55;14.55;;;5.20;99.90;;;;;;6038960;23;20200;-69
2022/03/22 06:28:18;;;;;;;17.10;15.30;;;5.80;99.90;;;;;;6047378;23;20590;-69
2022/03/22 06:30:45;;;;;;;18.30;16.35;;;6.20;99.90;;;;;;6042367;23;20185;-69
2022/03/22 06:33:16;;;;;;;21.20;16.30;;;6.60;99.10;;;;;;6040550;23;20854;-69
2022/03/22 06:35:46;;;;;;;19.10;15.23;;;6.90;98.00;;;;;;6047246;23;20237;-69
2022/03/22 06:38:14;;;;;;;17.90;15.10;;;7.20;96.90;;;;;;6040107;23;20287;-69
2022/03/22 06:40:41;;;;;;;17.55;15.70;;;7.60;96.20;;;;;;6047738;23;20268;-68
2022/03/22 06:43:10;;;;;;;18.25;15.05;;;8.00;95.60;;;;;;6047308;23;21025;-70
2022/03/22 06:45:38;;;;;;;18.88;16.15;;;8.30;94.30;;;;;;6038642;23;20206;-69
2022/03/22 06:48:06;;;;;;;16.08;14.38;;;8.50;93.40;;;;;;6041678;23;20189;-69
2022/03/22 06:50:34;;;;;;;16.45;14.48;;;8.50;92.70;;;;;;6041704;23;20258;-69
2022/03/22 06:53:02;;;;;;;16.83;14.55;;;8.50;92.20;;;;;;6047435;23;20189;-70
2022/03/22 06:55:31;;;;;;;18.08;14.90;;;8.40;92.10;;;;;;6045385;23;20269;-69
2022/03/22 06:57:58;;;;;;;16.00;14.40;;;8.50;92.00;;;;;;6051063;23;20218;-69
2022/03/22 07:00:28;;;;;;;15.85;14.23;;;8.70;90.90;;;;;;6048228;23;20195;-69
2022/03/22 07:02:55;;;;;;;18.70;14.80;;;8.60;90.70;;;;;;6048124;23;20196;-69
2022/03/22 07:05:22;;;;;;;15.93;14.07;;;8.50;90.50;;;;;;6050074;23;20276;-70
2022/03/22 07:07:49;;;;;;;17.02;15.15;;;8.60;90.80;;;;;;6051134;23;20199;-69
2022/03/22 07:10:19;;;;;;;15.80;14.20;;;8.80;90.30;;;;;;6051235;23;20205;-70
2022/03/22 07:12:53;;;;;;;16.00;14.43;;;9.00;90.40;;;;;;6040495;23;20210;-70
2022/03/22 07:15:23;;;;;;;15.55;14.05;;;9.30;89.20;;;;;;6045582;23;20307;-69
2022/03/22 07:17:52;;;;;;;15.93;14.43;;;9.60;89.20;;;;;;6051247;23;20223;-70
2022/03/22 07:20:20;;;;;;;16.13;14.45;;;9.90;87.70;;;;;;6052864;23;20215;-70
2022/03/22 07:22:47;;;;;;;16.80;15.10;;;10.00;84.90;;;;;;6061081;23;20589;-70
2022/03/22 07:25:14;;;;;;;16.75;15.23;;;10.10;83.70;;;;;;6052253;23;20756;-70
2022/03/22 07:27:43;;;;;;;17.55;15.07;;;10.10;83.80;;;;;;6057052;23;20278;-70
2022/03/22 07:30:11;;;;;;;16.88;14.52;;;10.20;82.90;;;;;;6035598;23;20196;-70
2022/03/22 07:32:38;;;;;;;16.25;14.68;;;10.50;81.80;;;;;;6049655;23;20196;-78
2022/03/22 07:35:07;;;;;;;16.42;14.73;;;10.90;81.00;;;;;;6047623;23;20217;-83
2022/03/22 07:37:35;;;;;;;15.45;13.90;;;11.20;79.80;;;;;;6050816;23;20221;-69
2022/03/22 07:40:03;;;;;;;15.57;14.07;;;11.40;78.30;;;;;;6072050;23;20264;-70
2022/03/22 07:42:30;;;;;;;14.70;13.20;;;11.50;77.30;;;;;;6047471;23;20201;-70
2022/03/22 07:45:01;;;;;;;16.00;14.30;;;11.70;76.00;;;;;;6050848;23;20240;-70
2022/03/22 07:47:29;;;;;;;15.73;14.02;;;12.00;75.90;;;;;;6040717;23;21024;-70
2022/03/22 07:53:01;;;;;;;15.73;14.15;;;12.60;74.00;;;;;;6048197;23;20267;-70
2022/03/22 07:55:29;;;;;;;14.98;13.48;;;12.80;74.30;;;;;;6061980;23;20266;-70
2022/03/22 07:57:57;;;;;;;14.57;13.18;;;13.40;72.50;;;;;;6052605;23;20652;-69
2022/03/22 08:00:26;;;;;;;15.50;14.00;;;13.50;71.20;;;;;;6051700;23;20242;-70
2022/03/22 08:02:54;;;;;;;15.48;13.98;;;13.60;70.00;;;;;;6050377;23;20250;-70
2022/03/22 08:05:22;;;;;;;14.25;12.77;;;13.80;68.40;;;;;;6052590;23;20283;-70
2022/03/22 08:07:49;;;;;;;14.75;13.30;;;14.00;67.20;;;;;;6052476;23;20637;-70
2022/03/22 08:10:16;;;;;;;15.02;13.52;;;14.20;65.30;;;;;;6055100;23;20271;-70
2022/03/22 08:12:44;;;;;;;13.30;12.00;;;14.20;65.40;;;;;;6048564;23;20200;-70
2022/03/22 08:15:12;;;;;;;13.32;11.95;;;14.20;63.50;;;;;;6048532;23;22069;-70
2022/03/22 08:17:41;;;;;;;13.25;11.80;;;14.60;62.90;;;;;;6044509;23;20250;-70
2022/03/22 08:20:10;;;;;;;13.23;12.03;;;15.20;60.80;;;;;;6055095;23;20191;-70
2022/03/22 08:22:51;;;;;;;13.20;11.93;;;15.70;59.40;;;;;;6044319;23;20445;-71
2022/03/22 08:25:22;;;;;;;12.53;11.33;;;15.90;57.90;;;;;;6045788;23;20489;-70
2022/03/22 08:27:49;;;;;;;13.73;12.47;;;15.80;56.80;;;;;;6044910;23;20625;-70
2022/03/22 08:30:20;;;;;;;12.80;11.60;;;15.70;57.90;;;;;;6049614;23;20870;-70
2022/03/22 08:32:49;;;;;;;13.53;12.13;;;16.00;57.20;;;;;;6052998;23;20445;-70
2022/03/22 08:35:16;;;;;;;12.87;11.67;;;16.20;55.80;;;;;;6051594;23;20472;-70
2022/03/22 08:37:43;;;;;;;12.87;11.77;;;16.40;54.90;;;;;;6049689;23;20577;-70
2022/03/22 08:40:13;;;;;;;13.90;12.47;;;16.30;54.80;;;;;;6048704;23;20959;-72
2022/03/22 08:42:43;;;;;;;13.50;12.30;;;16.40;54.50;;;;;;6042328;23;20774;-70
2022/03/22 08:45:12;;;;;;;13.67;12.10;;;16.30;53.60;;;;;;6043261;23;21592;-70
2022/03/22 08:47:40;;;;;;;13.30;12.10;;;16.10;54.00;;;;;;6045746;23;20441;-70
2022/03/22 08:50:10;;;;;;;14.00;12.70;;;16.40;53.70;;;;;;6045838;23;20449;-71
2022/03/22 08:52:38;;;;;;;14.50;13.17;;;16.60;53.80;;;;;;6051851;23;20865;-71
2022/03/22 08:55:08;;;;;;;14.20;12.83;;;17.30;53.30;;;;;;6053620;23;20509;-72
2022/03/22 08:57:35;;;;;;;14.70;13.30;;;17.60;52.20;;;;;;6049851;23;20456;-71
2022/03/22 09:00:09;;;;;;;14.87;13.57;;;18.10;51.80;;;;;;6057666;23;20438;-71
2022/03/22 09:02:36;;;;;;;14.60;13.10;;;18.00;51.90;;;;;;6057071;23;20458;-71
2022/03/22 09:07:50;;;;;;;14.13;12.83;;;18.40;50.90;;;;;;6055711;23;20443;-71
2022/03/22 09:10:20;;;;;;;15.13;13.70;;;18.70;50.50;;;;;;6050916;23;20442;-71
2022/03/22 09:12:47;;;;;;;14.77;13.33;;;18.70;49.40;;;;;;6052038;23;20435;-71
2022/03/22 09:15:14;;;;;;;14.43;13.10;;;18.80;50.00;;;;;;6051860;23;20459;-71
2022/03/22 09:17:41;;;;;;;13.73;12.43;;;19.20;49.10;;;;;;6052797;23;20470;-71
2022/03/22 09:20:12;;;;;;;13.90;12.63;;;19.00;48.10;;;;;;6050386;23;20439;-71
2022/03/22 09:22:39;;;;;;;13.60;12.50;;;18.90;48.20;;;;;;6046257;23;20534;-71
2022/03/22 09:25:09;;;;;;;15.00;13.63;;;18.90;48.20;;;;;;6051102;23;20969;-71
2022/03/22 09:27:36;;;;;;;14.77;13.27;;;18.70;48.10;;;;;;6046749;23;20451;-71
2022/03/22 09:30:03;;;;;;;13.67;12.47;;;18.90;48.30;;;;;;6053050;23;20442;-71
2022/03/22 09:32:30;;;;;;;14.63;13.40;;;19.10;47.80;;;;;;6051295;23;20446;-71
2022/03/22 09:34:59;;;;;;;13.97;12.80;;;19.40;46.90;;;;;;6048510;23;20467;-71
2022/03/22 09:37:27;;;;;;;16.00;14.40;;;19.70;46.70;;;;;;6059913;23;20466;-71
2022/03/22 09:39:56;;;;;;;15.63;14.23;;;19.70;46.50;;;;;;6053319;23;20531;-72
2022/03/22 09:42:27;;;;;;;14.50;13.30;;;19.60;46.40;;;;;;6048588;23;20746;-71
2022/03/22 09:44:55;;;;;;;15.20;13.90;;;19.30;46.40;;;;;;6050877;23;20952;-71
2022/03/22 09:47:22;;;;;;;15.27;13.87;;;19.20;46.10;;;;;;6048778;23;20443;-70
2022/03/22 09:49:49;;;;;;;15.83;14.53;;;19.20;46.90;;;;;;6051754;23;20439;-71
2022/03/22 09:52:17;;;;;;;14.23;13.03;;;19.40;45.90;;;;;;6051880;23;20439;-71
2022/03/22 09:54:44;;;;;;;14.60;13.30;;;19.90;46.30;;;;;;6047264;23;20499;-71
2022/03/22 09:57:11;;;;;;;17.30;15.80;;;20.40;46.20;;;;;;6047187;23;20593;-71
2022/03/22 09:59:39;;;;;;;16.60;15.03;;;21.00;45.10;;;;;;6049686;23;20515;-70
2022/03/22 10:02:08;;;;;;;15.43;14.03;;;21.40;44.20;;;;;;6049728;23;20939;-71
2022/03/22 10:04:39;;;;;;;14.17;12.97;;;21.40;43.90;;;;;;6055264;23;20464;-71
2022/03/22 10:07:07;;;;;;;15.30;14.03;;;21.50;43.40;;;;;;6047308;23;20572;-71
2022/03/22 10:09:37;;;;;;;14.40;13.10;;;21.20;42.90;;;;;;6050061;23;20783;-71
2022/03/22 10:12:07;;;;;;;14.93;13.63;;;21.10;42.90;;;;;;6053807;23;20517;-71
2022/03/22 10:14:36;;;;;;;14.27;13.03;;;21.00;43.00;;;;;;6047095;23;20463;-71
2022/03/22 10:17:14;;;;;;;14.60;13.50;;;21.20;43.70;;;;;;6048843;23;20597;-71
2022/03/22 10:19:46;;;;;;;14.77;13.27;;;21.60;43.40;;;;;;6048885;23;21036;-71
2022/03/22 10:22:14;;;;;;;14.60;13.33;;;22.20;42.70;;;;;;6046841;23;20444;-71
2022/03/22 10:24:49;;;;;;;15.33;14.13;;;22.80;41.50;;;;;;6048572;23;20508;-71
2022/03/22 10:27:21;;;;;;;16.03;14.57;;;23.30;41.10;;;;;;6054901;23;20434;-71
2022/03/22 10:29:48;;;;;;;14.67;13.47;;;23.40;41.10;;;;;;6049370;23;20513;-71
2022/03/22 10:32:16;;;;;;;15.47;14.27;;;23.80;41.20;;;;;;6067292;23;20481;-71
2022/03/22 10:34:43;;;;;;;14.60;13.50;;;24.20;40.30;;;;;;6055940;23;21025;-71
2022/03/22 10:37:10;;;;;;;15.07;13.77;;;24.50;40.10;;;;;;6060443;23;20527;-71
2022/03/22 10:39:42;;;;;;;16.00;14.50;;;24.80;39.80;;;;;;6056168;23;20459;-71
2022/03/22 10:42:10;;;;;;;15.53;14.23;;;25.40;39.50;;;;;;6050039;23;20514;-72
2022/03/22 10:44:38;;;;;;;26.30;23.90;;;26.10;38.10;;;;;;6045269;23;20473;-71
2022/03/22 10:47:07;;;;;;;14.93;13.73;;;26.30;37.30;;;;;;6053582;23;20458;-71
2022/03/22 10:49:36;;;;;;;15.77;14.47;;;26.20;37.00;;;;;;6053104;23;20459;-71
2022/03/22 10:52:08;;;;;;;14.93;13.83;;;25.20;36.10;;;;;;6044930;23;21095;-72
2022/03/22 10:54:35;;;;;;;15.10;13.90;;;24.60;36.90;;;;;;6048759;23;20545;-71
2022/03/22 10:57:02;;;;;;;14.97;13.70;;;24.30;36.90;;;;;;6059125;23;20474;-70
2022/03/22 10:59:29;;;;;;;14.20;13.00;;;24.40;37.80;;;;;;6048988;23;20498;-71
2022/03/22 11:01:56;;;;;;;14.40;13.20;;;24.50;37.50;;;;;;6046036;23;21294;-71
2022/03/22 11:04:24;;;;;;;14.80;13.60;;;25.20;37.80;;;;;;6050880;23;20563;-71
2022/03/22 11:06:55;;;;;;;15.90;14.50;;;25.30;36.10;;;;;;6050943;23;20447;-71
2022/03/22 11:09:24;;;;;;;15.67;14.43;;;25.40;35.80;;;;;;6053005;23;20435;-71
2022/03/22 11:11:51;;;;;;;15.23;14.03;;;25.40;36.40;;;;;;6045749;23;20439;-71
2022/03/22 11:14:19;;;;;;;14.93;13.73;;;25.60;36.20;;;;;;6053723;23;20483;-72
2022/03/22 11:16:48;;;;;;;15.13;13.93;;;25.60;37.10;;;;;;6052993;23;20950;-71
2022/03/22 11:19:17;;;;;;;15.00;13.90;;;25.90;37.50;;;;;;6045903;23;20499;-71
2022/03/22 11:21:44;;;;;;;14.70;13.50;;;26.10;36.50;;;;;;6050360;23;20537;-71
2022/03/22 11:24:15;;;;;;;15.63;14.43;;;26.10;35.70;;;;;;6045723;23;21009;-71
2022/03/22 11:26:43;;;;;;;16.47;15.17;;;26.30;36.10;;;;;;6057382;23;20439;-71
2022/03/22 11:29:12;;;;;;;14.67;13.43;;;26.30;36.10;;;;;;6058879;23;20473;-72
2022/03/22 11:31:41;;;;;;;15.67;14.40;;;26.90;36.10;;;;;;6050490;23;20516;-72
2022/03/22 11:34:09;;;;;;;14.90;13.80;;;27.20;35.30;;;;;;6045627;23;21374;-72
2022/03/22 11:36:43;;;;;;;15.53;14.33;;;26.60;35.20;;;;;;6050114;23;20546;-72
2022/03/22 11:39:15;;;;;;;16.00;14.80;;;26.40;35.90;;;;;;6024636;23;20955;-72
2022/03/22 11:44:35;;;;;;;15.03;13.87;;;26.80;34.80;;;;;;6043307;23;20515;-73
2022/03/22 11:47:07;;;;;;;16.07;14.87;;;26.60;35.50;;;;;;6050220;23;20439;-72
2022/03/22 11:49:52;;;;;;;15.67;14.37;;;26.70;34.80;;;;;;6053524;23;20453;-73
2022/03/22 11:52:20;;;;;;;15.60;14.40;;;26.30;34.80;;;;;;6058055;23;20435;-72
2022/03/22 11:54:57;;;;;;;16.40;15.10;;;26.00;35.10;;;;;;6053283;23;20462;-70
2022/03/22 11:57:25;;;;;;;15.77;14.37;;;26.10;35.40;;;;;;6056598;23;20446;-71
2022/03/22 11:59:53;;;;;;;15.57;14.30;;;26.30;35.80;;;;;;6050794;23;20918;-71
2022/03/22 12:02:22;;;;;;;15.57;14.40;;;26.50;34.90;;;;;;6054983;23;20960;-71
2022/03/22 12:04:51;;;;;;;16.27;15.03;;;26.80;34.80;;;;;;6057910;23;20449;-71
2022/03/22 12:07:27;;;;;;;16.07;14.77;;;25.10;34.40;;;;;;6042347;23;20437;-72
2022/03/22 12:10:06;;;;;;;16.10;14.80;;;24.50;36.10;;;;;;6048283;23;20446;-72
2022/03/22 12:12:34;;;;;;;14.70;13.60;;;24.70;36.00;;;;;;6061012;23;20435;-72
2022/03/22 12:15:04;;;;;;;16.20;14.90;;;25.30;36.00;;;;;;6053507;23;20538;-72
2022/03/22 12:17:31;;;;;;;15.63;14.33;;;25.80;36.10;;;;;;6051458;23;20494;-73
2022/03/22 12:20:00;;;;;;;16.93;15.53;;;26.60;35.10;;;;;;6052102;23;20483;-72
2022/03/22 12:22:28;;;;;;;15.27;14.10;;;26.80;35.10;;;;;;6052049;23;20448;-72
2022/03/22 12:24:59;;;;;;;16.20;14.70;;;26.70;34.80;;;;;;6053602;23;20457;-72
2022/03/22 12:27:27;;;;;;;16.03;14.90;;;26.10;35.10;;;;;;6056449;23;20446;-72
2022/03/22 12:29:55;;;;;;;17.43;15.73;;;25.70;35.10;;;;;;6049722;23;20447;-73
2022/03/22 12:32:26;;;;;;;16.27;14.87;;;25.10;36.00;;;;;;6047595;23;20555;-73
2022/03/22 12:34:53;;;;;;;16.30;15.00;;;24.90;36.10;;;;;;6050910;23;20558;-72
2022/03/22 12:37:20;;;;;;;16.17;14.87;;;24.70;36.60;;;;;;6053320;23;20525;-72
2022/03/22 12:39:48;;;;;;;16.13;14.93;;;25.10;36.50;;;;;;6042815;23;20472;-72
2022/03/22 12:42:18;;;;;;;15.57;14.20;;;25.40;36.70;;;;;;6054263;23;20524;-82
2022/03/22 12:44:46;;;;;;;16.20;15.00;;;25.80;36.20;;;;;;6049994;23;20461;-72
2022/03/22 12:47:13;;;;;;;16.27;15.07;;;26.10;35.40;;;;;;6053807;23;20977;-73
2022/03/22 12:49:40;;;;;;;16.47;15.17;;;25.70;35.40;;;;;;6055188;23;20444;-73
2022/03/22 12:52:09;;;;;;;16.43;15.03;;;24.50;35.60;;;;;;6055193;23;20440;-73
2022/03/22 12:54:39;;;;;;;17.47;15.77;;;24.40;37.00;;;;;;6055044;23;20535;-73
2022/03/22 12:57:09;;;;;;;17.00;15.47;;;24.70;37.10;;;;;;6057652;23;20501;-73
2022/03/22 12:59:38;;;;;;;15.40;14.17;;;25.10;36.90;;;;;;6051811;23;20501;-73
2022/03/22 13:02:07;;;;;;;15.93;14.60;;;25.60;36.40;;;;;;6050847;23;20448;-73
2022/03/22 13:04:37;;;;;;;18.30;16.60;;;26.00;36.10;;;;;;6052893;23;20462;-72
2022/03/22 13:07:08;;;;;;;15.47;14.30;;;26.10;35.90;;;;;;6048899;23;20513;-72